Plaza, North Carolina
Current Conditions -  °F | °C
As of 6:54 PM on Sunday 25 Jan 2015 (Local Time) from KGSO Reporting Station
Few Clouds Few Clouds  
Wind Chill: 43°   Ceiling: Unl
Heat Index: 47°   Visibility: 10mi
Dew Point: 32°   Wind: 8mph
Humidity: 56%   Direction: 180°S
Pressure: 29.79"   Gusts: NA
Location:  36.1026°N, 79.8146°W
Report Text: KGSO 252354Z 18007KT 10SM FEW200 08/00 A2979 RMK AO2 SLP093 T00830000 10122 20078 53008
Loading
Personal Weather Stations






























Interactive Weather Map New forecast layout! Learn more

10-Day Weather Forecast

Advertisements
Track Severe Weather on mobile